Time;durP1;ratioP1;P1;durP2;ratioP2;P2;SDS_P1;SDS_P2;PMS_P1;PMS_P2;Temp;Humidity;BMP_temperature;BMP_pressure;BME280_temperature;BME280_humidity;BME280_pressure;Samples;Min_cycle;Max_cycle;Signal;HPM_P1;HPM_P2
2021/05/26 00:00:50;;;;;;;2.03;1.30;;;11.60;99.90;;;;;;5055187;28;20577;-67
2021/05/26 00:03:16;;;;;;;2.40;1.50;;;11.60;99.90;;;;;;5063517;28;20522;-66
2021/05/26 00:05:41;;;;;;;4.80;1.87;;;11.50;99.90;;;;;;5055717;28;20246;-65
2021/05/26 00:08:07;;;;;;;1.60;1.50;;;11.60;99.90;;;;;;5060898;28;20204;-66
2021/05/26 00:10:32;;;;;;;1.63;1.53;;;11.60;99.90;;;;;;5055689;28;20205;-67
2021/05/26 00:12:58;;;;;;;2.27;1.50;;;11.60;99.90;;;;;;5051669;28;20181;-67
2021/05/26 00:15:23;;;;;;;2.10;1.60;;;11.60;99.90;;;;;;5054027;28;20843;-66
2021/05/26 00:17:49;;;;;;;1.83;1.30;;;11.60;99.90;;;;;;5063251;28;20185;-65
2021/05/26 00:20:14;;;;;;;3.27;1.70;;;11.60;99.90;;;;;;5067315;28;20234;-66
2021/05/26 00:22:40;;;;;;;2.20;1.50;;;11.60;99.90;;;;;;5062920;28;20218;-66
2021/05/26 00:25:06;;;;;;;2.10;1.27;;;11.60;99.90;;;;;;5063014;28;20205;-67
2021/05/26 00:27:32;;;;;;;1.87;1.67;;;11.60;99.90;;;;;;5061870;28;20184;-67
2021/05/26 00:29:57;;;;;;;2.40;1.63;;;11.60;99.90;;;;;;5069734;28;20811;-66
2021/05/26 00:32:23;;;;;;;3.27;1.60;;;11.70;99.90;;;;;;5064504;28;20177;-66
2021/05/26 00:34:48;;;;;;;1.57;1.13;;;11.70;99.90;;;;;;5063179;28;20198;-67
2021/05/26 00:37:14;;;;;;;1.87;1.60;;;11.70;99.90;;;;;;5068204;28;20188;-67
2021/05/26 00:39:39;;;;;;;3.17;1.70;;;11.70;99.90;;;;;;5068044;28;20611;-66
2021/05/26 00:42:05;;;;;;;4.40;1.30;;;11.70;99.90;;;;;;5058690;28;20667;-66
2021/05/26 00:44:31;;;;;;;4.40;1.30;;;11.80;99.90;;;;;;5051046;28;20190;-67
2021/05/26 00:46:56;;;;;;;2.57;1.50;;;11.80;99.90;;;;;;5059282;28;20498;-67
2021/05/26 00:49:22;;;;;;;2.70;1.30;;;11.80;99.90;;;;;;5068371;28;20193;-66
2021/05/26 00:51:48;;;;;;;1.20;1.10;;;11.80;99.90;;;;;;5064008;28;20177;-66
2021/05/26 00:54:13;;;;;;;2.03;1.53;;;11.80;99.90;;;;;;5061285;28;20261;-66
2021/05/26 00:56:39;;;;;;;1.60;1.50;;;11.80;99.90;;;;;;5051398;28;20181;-66
2021/05/26 00:59:07;;;;;;;5.20;1.40;;;11.80;99.90;;;;;;5055907;28;20193;-66
2021/05/26 01:01:33;;;;;;;1.77;1.33;;;11.80;99.90;;;;;;5052090;28;20219;-66
2021/05/26 01:03:59;;;;;;;4.40;1.30;;;11.80;99.90;;;;;;5050394;28;20435;-66
2021/05/26 01:06:24;;;;;;;1.30;1.20;;;11.80;99.90;;;;;;5051795;28;20542;-66
2021/05/26 01:08:50;;;;;;;1.60;1.50;;;11.90;99.90;;;;;;5057157;28;20596;-66
2021/05/26 01:11:17;;;;;;;1.53;1.33;;;11.90;99.90;;;;;;5067389;28;20200;-66
2021/05/26 01:13:44;;;;;;;1.40;1.30;;;11.80;99.90;;;;;;5062130;28;20954;-66
2021/05/26 01:16:10;;;;;;;1.80;1.23;;;11.80;99.90;;;;;;5068882;28;20431;-66
2021/05/26 01:18:36;;;;;;;4.47;1.27;;;11.50;99.90;;;;;;5060530;28;20836;-66
2021/05/26 01:21:08;;;;;;;2.20;1.30;;;11.30;99.90;;;;;;5059169;28;20182;-66
2021/05/26 01:23:36;;;;;;;3.70;2.10;;;11.10;99.90;;;;;;5057513;28;20439;-66
2021/05/26 01:26:04;;;;;;;1.37;1.27;;;11.00;99.90;;;;;;5070865;28;20515;-67
2021/05/26 01:28:31;;;;;;;3.20;1.23;;;10.80;99.90;;;;;;5072405;28;20626;-66
2021/05/26 01:30:58;;;;;;;5.53;1.50;;;10.60;99.90;;;;;;5071545;28;20896;-67
2021/05/26 01:33:24;;;;;;;1.40;1.30;;;10.50;99.90;;;;;;5068546;28;20438;-65
2021/05/26 01:35:50;;;;;;;2.90;1.10;;;10.40;99.90;;;;;;5061857;28;20497;-66
2021/05/26 01:38:18;;;;;;;2.10;1.03;;;10.40;99.90;;;;;;5060040;28;20442;-67
2021/05/26 01:40:44;;;;;;;3.83;1.50;;;10.40;99.90;;;;;;5072253;28;20177;-66
2021/05/26 01:43:10;;;;;;;5.20;1.67;;;10.40;99.90;;;;;;5060887;28;20428;-66
2021/05/26 01:45:35;;;;;;;2.60;1.63;;;10.50;99.90;;;;;;5053836;28;20224;-67
2021/05/26 01:48:01;;;;;;;1.30;1.17;;;10.40;99.90;;;;;;5064954;28;20224;-66
2021/05/26 01:50:26;;;;;;;3.13;1.53;;;10.30;99.90;;;;;;5062770;28;20256;-65
2021/05/26 01:53:04;;;;;;;5.07;1.77;;;10.30;99.90;;;;;;5055064;28;20184;-67
2021/05/26 01:55:34;;;;;;;2.40;1.27;;;10.30;99.90;;;;;;5062060;28;20183;-66
2021/05/26 01:58:00;;;;;;;4.60;1.33;;;10.40;99.90;;;;;;5062658;28;20965;-66
2021/05/26 02:00:26;;;;;;;3.10;1.80;;;10.40;99.90;;;;;;5067630;28;20430;-66
2021/05/26 02:02:52;;;;;;;2.27;1.00;;;10.40;99.90;;;;;;5052482;28;20428;-66
2021/05/26 02:05:18;;;;;;;2.77;1.30;;;10.40;99.90;;;;;;5062370;28;20462;-66
2021/05/26 02:07:44;;;;;;;3.90;1.60;;;10.40;99.90;;;;;;5055366;28;20173;-66
2021/05/26 02:10:13;;;;;;;3.47;1.40;;;10.40;99.90;;;;;;5058292;28;20437;-66
2021/05/26 02:12:41;;;;;;;4.87;1.70;;;10.40;99.90;;;;;;5057827;28;20420;-66
2021/05/26 02:15:10;;;;;;;3.63;1.33;;;10.40;99.90;;;;;;5059645;28;20434;-66
2021/05/26 02:17:37;;;;;;;1.80;1.37;;;10.40;99.90;;;;;;5070105;28;20431;-65
2021/05/26 02:20:04;;;;;;;2.17;1.20;;;10.40;99.90;;;;;;5068470;28;20431;-66
2021/05/26 02:22:30;;;;;;;7.80;1.50;;;10.40;99.90;;;;;;5065420;28;20423;-65
2021/05/26 02:24:56;;;;;;;4.37;1.10;;;10.40;99.90;;;;;;5052173;28;20859;-67
2021/05/26 02:27:21;;;;;;;2.33;1.40;;;10.30;99.90;;;;;;5053346;28;20182;-67
2021/05/26 02:29:47;;;;;;;1.67;1.50;;;10.30;99.90;;;;;;5059576;28;20204;-67
2021/05/26 02:32:13;;;;;;;1.40;1.30;;;10.40;99.90;;;;;;5051978;28;20697;-67
2021/05/26 02:34:39;;;;;;;3.33;1.40;;;10.30;99.90;;;;;;5062729;28;20176;-66
2021/05/26 02:37:05;;;;;;;1.50;1.10;;;10.40;99.90;;;;;;5061428;28;20577;-67
2021/05/26 02:39:30;;;;;;;1.80;1.20;;;10.40;99.90;;;;;;5051533;28;20544;-67
2021/05/26 02:41:56;;;;;;;1.83;1.03;;;10.40;99.90;;;;;;5052805;28;20551;-67
2021/05/26 02:44:22;;;;;;;1.60;1.50;;;10.40;99.90;;;;;;5060101;28;20553;-67
2021/05/26 02:46:48;;;;;;;1.10;1.00;;;10.40;99.90;;;;;;5071047;28;20192;-67
2021/05/26 02:49:14;;;;;;;3.13;1.33;;;10.40;99.90;;;;;;5064426;28;20196;-66
2021/05/26 02:51:40;;;;;;;1.10;1.00;;;10.50;99.90;;;;;;5057097;28;20431;-66
2021/05/26 02:54:06;;;;;;;3.70;1.73;;;10.40;99.90;;;;;;5058009;28;20947;-66
2021/05/26 02:56:32;;;;;;;3.57;1.70;;;10.40;99.90;;;;;;5066522;28;20438;-66
2021/05/26 02:58:58;;;;;;;1.70;1.23;;;10.30;99.90;;;;;;5065038;28;20453;-67
2021/05/26 03:01:24;;;;;;;4.77;1.70;;;10.10;99.90;;;;;;5054196;28;20866;-67
2021/05/26 03:03:49;;;;;;;3.13;1.37;;;10.00;99.90;;;;;;5056922;28;20173;-67
2021/05/26 03:06:15;;;;;;;1.40;1.20;;;10.00;99.90;;;;;;5061894;28;20598;-66
2021/05/26 03:08:41;;;;;;;3.70;1.53;;;9.90;99.90;;;;;;5060090;28;20201;-66
2021/05/26 03:11:06;;;;;;;1.87;1.67;;;10.00;99.90;;;;;;5064271;28;20166;-66
2021/05/26 03:13:32;;;;;;;2.07;1.50;;;9.90;99.90;;;;;;5052637;28;20441;-67
2021/05/26 03:15:59;;;;;;;2.90;1.53;;;9.90;99.90;;;;;;5051840;28;20231;-67
2021/05/26 03:18:25;;;;;;;1.60;1.50;;;9.90;99.90;;;;;;5058393;28;20671;-66
2021/05/26 03:20:52;;;;;;;2.40;1.30;;;9.90;99.90;;;;;;5060481;28;20933;-66
2021/05/26 03:23:19;;;;;;;5.60;1.87;;;9.90;99.90;;;;;;5068838;28;20427;-67
2021/05/26 03:25:47;;;;;;;3.90;2.87;;;9.90;99.90;;;;;;5059002;28;20864;-66
2021/05/26 03:28:15;;;;;;;4.43;1.70;;;9.90;99.90;;;;;;5064875;28;20439;-67
2021/05/26 03:30:42;;;;;;;2.90;1.70;;;9.90;99.90;;;;;;5055889;28;20432;-66
2021/05/26 03:33:11;;;;;;;5.67;1.90;;;9.90;99.90;;;;;;5067378;28;20454;-66
2021/05/26 03:35:41;;;;;;;4.07;1.73;;;9.90;99.90;;;;;;5060103;28;20525;-66
2021/05/26 03:38:07;;;;;;;3.30;1.37;;;9.90;99.90;;;;;;5052954;28;20451;-66
2021/05/26 03:40:33;;;;;;;2.87;1.70;;;10.00;99.90;;;;;;5061767;28;20850;-66
2021/05/26 03:42:59;;;;;;;3.13;1.40;;;10.00;99.90;;;;;;5055256;28;20463;-66
2021/05/26 03:45:25;;;;;;;2.90;1.73;;;10.00;99.90;;;;;;5051015;28;20463;-67
2021/05/26 03:47:51;;;;;;;5.60;1.63;;;10.00;99.90;;;;;;5056011;28;20431;-67
2021/05/26 03:50:16;;;;;;;2.33;2.13;;;10.10;99.90;;;;;;5060316;28;20650;-67
2021/05/26 03:52:43;;;;;;;2.43;1.93;;;10.10;99.90;;;;;;5066499;28;20181;-66
2021/05/26 03:55:11;;;;;;;2.37;1.40;;;10.10;99.90;;;;;;5061480;28;20169;-66
2021/05/26 03:57:38;;;;;;;2.30;1.27;;;10.10;99.90;;;;;;5051035;28;20785;-65
2021/05/26 04:00:08;;;;;;;5.53;1.23;;;10.20;99.90;;;;;;5062224;28;20506;-67
2021/05/26 04:02:37;;;;;;;2.30;1.30;;;10.20;99.90;;;;;;5051898;28;20424;-65
2021/05/26 04:05:04;;;;;;;2.87;2.57;;;10.20;99.90;;;;;;5064209;28;20465;-67
2021/05/26 04:07:30;;;;;;;4.00;1.93;;;10.20;99.90;;;;;;5069165;28;20439;-65
2021/05/26 04:09:56;;;;;;;3.17;1.57;;;10.20;99.90;;;;;;5060015;28;20456;-66
2021/05/26 04:12:24;;;;;;;2.47;1.63;;;10.10;99.90;;;;;;5057717;28;20184;-66
2021/05/26 04:14:49;;;;;;;5.23;1.50;;;10.10;99.90;;;;;;5050678;28;20424;-67
2021/05/26 04:17:15;;;;;;;2.77;2.20;;;10.10;99.90;;;;;;5054743;28;20777;-66
2021/05/26 04:19:40;;;;;;;4.57;1.30;;;10.10;99.90;;;;;;5067445;28;20250;-66
2021/05/26 04:22:06;;;;;;;5.80;2.03;;;10.00;99.90;;;;;;5067075;28;20201;-65
2021/05/26 04:24:32;;;;;;;2.47;1.53;;;10.00;99.90;;;;;;5068883;28;20181;-65
2021/05/26 04:26:57;;;;;;;2.10;1.93;;;10.00;99.90;;;;;;5069913;28;20694;-67
2021/05/26 04:29:23;;;;;;;4.70;2.67;;;10.00;99.90;;;;;;5059006;28;20201;-65
2021/05/26 04:31:49;;;;;;;8.13;1.97;;;10.00;99.90;;;;;;5054522;28;20174;-66
2021/05/26 04:34:14;;;;;;;1.67;1.57;;;9.90;99.90;;;;;;5054483;28;20181;-66
2021/05/26 04:36:40;;;;;;;6.03;1.90;;;9.80;99.90;;;;;;5059590;28;20181;-65
2021/05/26 04:39:06;;;;;;;2.97;1.63;;;9.70;99.90;;;;;;5059848;28;20790;-66
2021/05/26 04:41:32;;;;;;;3.53;2.13;;;9.60;99.90;;;;;;5061813;28;20176;-66
2021/05/26 04:43:57;;;;;;;3.30;2.03;;;9.60;99.90;;;;;;5069143;28;20281;-66
2021/05/26 04:46:23;;;;;;;2.80;1.60;;;9.60;99.90;;;;;;5061319;28;20640;-66
2021/05/26 04:48:48;;;;;;;1.53;1.43;;;9.60;99.90;;;;;;5063964;28;20202;-64
2021/05/26 04:51:14;;;;;;;3.20;2.13;;;9.60;99.90;;;;;;5065761;28;20704;-67
2021/05/26 04:53:39;;;;;;;3.03;2.00;;;9.60;99.90;;;;;;5062318;28;20185;-67
2021/05/26 04:56:05;;;;;;;3.80;1.60;;;9.50;99.90;;;;;;5055109;28;20548;-66
2021/05/26 04:58:30;;;;;;;6.80;2.27;;;9.50;99.90;;;;;;5055967;28;20256;-65
2021/05/26 05:00:56;;;;;;;4.90;2.20;;;9.50;99.90;;;;;;5062940;28;20205;-66
2021/05/26 05:03:21;;;;;;;2.83;2.20;;;9.40;99.90;;;;;;5059361;28;20186;-66
2021/05/26 05:05:47;;;;;;;3.70;1.67;;;9.40;99.90;;;;;;5069408;28;20287;-65
2021/05/26 05:08:12;;;;;;;3.77;2.80;;;9.40;99.90;;;;;;5057383;28;20197;-66
2021/05/26 05:10:38;;;;;;;3.30;1.87;;;9.40;99.90;;;;;;5058200;28;20212;-66
2021/05/26 05:13:03;;;;;;;2.80;1.70;;;9.40;99.90;;;;;;5071643;28;20177;-66
2021/05/26 05:15:29;;;;;;;3.87;1.97;;;9.40;99.90;;;;;;5073059;28;20187;-65
2021/05/26 05:17:55;;;;;;;4.90;2.40;;;9.30;99.90;;;;;;5060314;28;20228;-65
2021/05/26 05:20:22;;;;;;;2.70;2.17;;;9.40;99.90;;;;;;5066133;28;20435;-64
2021/05/26 05:22:48;;;;;;;3.13;1.90;;;9.40;99.90;;;;;;5062205;28;21012;-65
2021/05/26 05:25:15;;;;;;;2.73;2.10;;;9.30;99.90;;;;;;5054382;28;20735;-66
2021/05/26 05:27:41;;;;;;;3.07;2.17;;;9.30;99.90;;;;;;5053394;28;20455;-66
2021/05/26 05:30:07;;;;;;;2.37;2.10;;;9.30;99.90;;;;;;5063599;28;20509;-66
2021/05/26 05:32:33;;;;;;;5.03;2.40;;;9.30;99.90;;;;;;5072806;28;20431;-65
2021/05/26 05:34:58;;;;;;;2.73;2.23;;;9.30;99.90;;;;;;5060586;28;20585;-66
2021/05/26 05:37:24;;;;;;;3.97;2.10;;;9.30;99.90;;;;;;5060152;28;20308;-66
2021/05/26 05:39:51;;;;;;;2.80;2.60;;;9.30;99.90;;;;;;5053051;28;20205;-65
2021/05/26 05:42:16;;;;;;;3.47;2.53;;;9.40;99.90;;;;;;5052920;28;20463;-66
2021/05/26 05:44:42;;;;;;;5.77;1.90;;;9.30;99.90;;;;;;5060885;28;20925;-66
2021/05/26 05:47:07;;;;;;;4.73;2.07;;;9.40;99.90;;;;;;5053140;28;20674;-67
2021/05/26 05:49:32;;;;;;;4.83;2.87;;;9.40;99.90;;;;;;5067290;28;20200;-66
2021/05/26 05:51:58;;;;;;;4.93;2.43;;;9.50;99.90;;;;;;5068692;28;20181;-66
2021/05/26 05:54:23;;;;;;;2.70;2.50;;;9.50;99.90;;;;;;5057947;28;20181;-66
2021/05/26 05:56:49;;;;;;;2.70;1.90;;;9.50;99.90;;;;;;5072132;28;20609;-66
2021/05/26 05:59:15;;;;;;;7.23;3.10;;;9.50;99.90;;;;;;5066147;28;20207;-65
2021/05/26 06:01:40;;;;;;;5.37;2.50;;;9.50;99.90;;;;;;5071057;28;20741;-66
2021/05/26 06:04:05;;;;;;;6.67;1.97;;;9.60;99.90;;;;;;5062355;28;20174;-65
2021/05/26 06:06:31;;;;;;;5.00;2.30;;;9.60;99.90;;;;;;5059000;28;20715;-66
2021/05/26 06:08:57;;;;;;;7.20;4.30;;;9.60;99.90;;;;;;5056000;28;20215;-65
2021/05/26 06:11:22;;;;;;;6.27;3.50;;;9.60;99.90;;;;;;5066900;28;20227;-66
2021/05/26 06:13:49;;;;;;;5.10;2.20;;;9.60;99.90;;;;;;5065388;28;20176;-64
2021/05/26 06:16:15;;;;;;;2.77;2.50;;;9.60;99.90;;;;;;5068744;28;20234;-66
2021/05/26 06:18:41;;;;;;;7.00;2.63;;;9.70;99.90;;;;;;5079298;28;20459;-65
2021/05/26 06:21:07;;;;;;;2.80;2.10;;;9.70;99.90;;;;;;5067275;28;20442;-65
2021/05/26 06:23:32;;;;;;;3.67;1.63;;;9.60;99.90;;;;;;5077263;28;20686;-65
2021/05/26 06:25:58;;;;;;;5.13;2.47;;;9.60;99.90;;;;;;5071434;28;20193;-65
2021/05/26 06:28:23;;;;;;;5.53;4.83;;;9.60;99.90;;;;;;5071450;28;20201;-65
2021/05/26 06:30:49;;;;;;;5.00;2.90;;;9.70;99.90;;;;;;5069209;28;20180;-65
2021/05/26 06:33:14;;;;;;;5.37;2.73;;;9.70;99.90;;;;;;5049740;28;20597;-64
2021/05/26 06:35:40;;;;;;;2.43;1.77;;;9.70;99.90;;;;;;5050177;28;20720;-64
2021/05/26 06:38:05;;;;;;;7.70;2.20;;;9.80;99.90;;;;;;5070967;28;20310;-65
2021/05/26 06:40:31;;;;;;;3.57;2.30;;;9.80;99.90;;;;;;5067803;28;20192;-65
2021/05/26 06:42:57;;;;;;;4.73;2.47;;;9.90;99.90;;;;;;5074013;28;20185;-66
2021/05/26 06:45:22;;;;;;;3.13;2.27;;;9.90;99.90;;;;;;5070973;28;20209;-65
2021/05/26 06:47:48;;;;;;;4.50;2.40;;;10.00;99.90;;;;;;5071914;28;20255;-64
2021/05/26 06:50:14;;;;;;;3.17;2.20;;;10.00;99.90;;;;;;5066539;28;20200;-65
2021/05/26 06:52:39;;;;;;;3.93;2.40;;;10.10;99.90;;;;;;5065882;28;20252;-65
2021/05/26 06:55:07;;;;;;;3.03;2.47;;;10.10;99.90;;;;;;5071134;28;20420;-64
2021/05/26 06:57:32;;;;;;;5.77;1.93;;;10.10;99.90;;;;;;5067165;28;20172;-66
2021/05/26 06:59:58;;;;;;;4.50;2.20;;;10.20;99.90;;;;;;5067535;28;20542;-66
2021/05/26 07:02:23;;;;;;;4.67;2.90;;;10.20;99.90;;;;;;5072467;28;20177;-65
2021/05/26 07:04:49;;;;;;;3.77;2.60;;;10.30;99.90;;;;;;5072688;28;20180;-66
2021/05/26 07:07:14;;;;;;;2.33;2.00;;;10.30;99.90;;;;;;5069948;28;20643;-65
2021/05/26 07:09:40;;;;;;;3.53;2.13;;;10.30;99.90;;;;;;5067937;28;20234;-66
2021/05/26 07:12:06;;;;;;;4.43;2.20;;;10.40;99.90;;;;;;5067440;28;20162;-65
2021/05/26 07:14:31;;;;;;;5.47;2.60;;;10.40;99.90;;;;;;5069671;28;20706;-63
2021/05/26 07:16:57;;;;;;;3.50;2.60;;;10.40;99.90;;;;;;5065425;28;20778;-66
2021/05/26 07:19:22;;;;;;;4.63;2.47;;;10.40;99.90;;;;;;5064489;28;20192;-66
2021/05/26 07:21:48;;;;;;;3.60;2.70;;;10.40;99.90;;;;;;5059348;28;20336;-65
2021/05/26 07:24:13;;;;;;;4.20;2.60;;;10.50;99.90;;;;;;5065161;28;20200;-65
2021/05/26 07:26:39;;;;;;;6.17;4.80;;;10.50;99.90;;;;;;5068369;28;20245;-65
2021/05/26 07:29:04;;;;;;;6.03;2.43;;;10.50;99.90;;;;;;5069905;28;20189;-66
2021/05/26 07:31:30;;;;;;;5.37;3.37;;;10.60;99.90;;;;;;5069692;28;20173;-65
2021/05/26 07:33:56;;;;;;;5.83;2.60;;;10.60;99.90;;;;;;5064573;28;20172;-65
2021/05/26 07:36:21;;;;;;;5.83;2.30;;;10.60;99.90;;;;;;5069044;28;20614;-65
2021/05/26 07:38:47;;;;;;;3.43;2.13;;;10.60;99.90;;;;;;5059362;28;20282;-65
2021/05/26 07:41:12;;;;;;;5.23;2.37;;;10.60;99.90;;;;;;5067618;28;20550;-65
2021/05/26 07:43:38;;;;;;;3.93;2.73;;;10.70;99.90;;;;;;5068140;28;20208;-65
2021/05/26 07:46:05;;;;;;;4.80;2.87;;;10.60;99.90;;;;;;5064533;28;21125;-65
2021/05/26 07:48:31;;;;;;;3.27;2.90;;;10.50;99.90;;;;;;5061521;28;20216;-65
2021/05/26 07:50:57;;;;;;;2.83;2.13;;;10.50;99.90;;;;;;5065611;28;20427;-65
2021/05/26 07:53:22;;;;;;;6.37;2.77;;;10.60;99.90;;;;;;5066218;28;20419;-65
2021/05/26 07:55:48;;;;;;;5.67;2.50;;;10.60;99.90;;;;;;5066864;28;20192;-65
2021/05/26 07:58:13;;;;;;;5.33;2.47;;;10.60;99.90;;;;;;5066850;28;20266;-66
2021/05/26 08:00:39;;;;;;;4.80;2.73;;;10.70;99.90;;;;;;5063370;28;20723;-66
2021/05/26 08:03:06;;;;;;;4.47;2.83;;;10.60;99.90;;;;;;5068722;28;20201;-66
2021/05/26 08:05:32;;;;;;;4.90;2.07;;;10.60;99.90;;;;;;5067656;28;20206;-66
2021/05/26 08:07:57;;;;;;;5.57;2.73;;;10.70;99.90;;;;;;5066943;28;20930;-65
2021/05/26 08:10:23;;;;;;;3.80;2.07;;;10.70;99.90;;;;;;5064147;28;20524;-65
2021/05/26 08:12:48;;;;;;;6.40;3.63;;;10.80;99.90;;;;;;5067835;28;20185;-65
2021/05/26 08:15:14;;;;;;;5.57;2.53;;;10.90;99.90;;;;;;5067350;28;20212;-67
2021/05/26 08:17:40;;;;;;;5.27;2.33;;;10.90;99.90;;;;;;5067920;28;20173;-65
2021/05/26 08:20:07;;;;;;;4.70;2.80;;;11.00;99.90;;;;;;5068752;28;20838;-66
2021/05/26 08:22:33;;;;;;;4.13;2.30;;;11.00;99.90;;;;;;5068322;28;20490;-66
2021/05/26 08:25:00;;;;;;;3.10;2.60;;;10.90;99.90;;;;;;5071913;28;20437;-65
2021/05/26 08:27:26;;;;;;;3.90;2.57;;;10.80;99.90;;;;;;5071071;28;20422;-64
2021/05/26 08:29:56;;;;;;;7.97;2.80;;;10.80;99.90;;;;;;5070372;28;20534;-65
2021/05/26 08:32:22;;;;;;;6.63;3.23;;;10.70;99.90;;;;;;5070920;28;20434;-66
2021/05/26 08:34:49;;;;;;;4.90;2.60;;;10.70;99.90;;;;;;5067664;28;20432;-65
2021/05/26 08:37:18;;;;;;;7.10;2.93;;;10.70;99.90;;;;;;5065974;28;20451;-65
2021/05/26 08:39:43;;;;;;;9.07;3.70;;;10.70;99.90;;;;;;5084830;28;20458;-65
2021/05/26 08:42:09;;;;;;;7.77;3.17;;;10.70;99.90;;;;;;5070193;28;20435;-65
2021/05/26 08:44:35;;;;;;;8.47;3.60;;;10.70;99.90;;;;;;5070847;28;20180;-65
2021/05/26 08:47:02;;;;;;;5.50;3.50;;;10.60;99.90;;;;;;5070418;28;20549;-65
2021/05/26 08:49:30;;;;;;;6.43;3.20;;;10.60;99.90;;;;;;5068289;28;20205;-65
2021/05/26 08:51:59;;;;;;;5.20;3.00;;;10.60;99.90;;;;;;5069146;28;20488;-66
2021/05/26 08:54:24;;;;;;;4.53;2.47;;;10.60;99.90;;;;;;5068913;28;20763;-66
2021/05/26 08:56:50;;;;;;;4.40;3.20;;;10.60;99.90;;;;;;5070748;28;20518;-65
2021/05/26 08:59:16;;;;;;;5.13;3.20;;;10.60;99.90;;;;;;5070826;28;20241;-65
2021/05/26 09:01:49;;;;;;;4.27;3.10;;;10.50;99.90;;;;;;5070880;28;20708;-65
2021/05/26 09:04:34;;;;;;;8.43;3.40;;;10.50;99.90;;;;;;5071240;28;20429;-64
2021/05/26 09:07:22;;;;;;;4.60;3.23;;;10.50;99.90;;;;;;5070886;28;20455;-65
2021/05/26 09:09:52;;;;;;;5.47;3.27;;;10.50;99.90;;;;;;5056011;28;20980;-65
2021/05/26 09:12:24;;;;;;;6.60;3.23;;;10.50;99.90;;;;;;5070983;28;20478;-65
2021/05/26 09:14:49;;;;;;;4.43;3.20;;;10.40;99.90;;;;;;5061391;28;20430;-65
2021/05/26 09:17:15;;;;;;;7.07;3.00;;;10.50;99.90;;;;;;5063480;28;20432;-65
2021/05/26 09:19:41;;;;;;;5.90;3.30;;;10.50;99.90;;;;;;5060839;28;20279;-65
2021/05/26 09:22:11;;;;;;;5.50;2.87;;;10.60;99.90;;;;;;5067562;28;20211;-64
2021/05/26 09:24:37;;;;;;;4.40;3.07;;;10.60;99.90;;;;;;5057898;28;20185;-65
2021/05/26 09:27:10;;;;;;;5.93;2.53;;;10.80;99.90;;;;;;5063364;28;20466;-66
2021/05/26 09:29:44;;;;;;;5.00;2.30;;;10.80;99.90;;;;;;5057693;28;20196;-65
2021/05/26 09:32:21;;;;;;;6.67;3.00;;;10.70;99.90;;;;;;5054768;28;20427;-65
2021/05/26 09:34:54;;;;;;;7.30;3.70;;;10.70;99.90;;;;;;5066281;28;20414;-64
2021/05/26 09:37:23;;;;;;;8.33;2.80;;;10.70;99.90;;;;;;5069325;28;20431;-66
2021/05/26 09:40:01;;;;;;;3.27;2.20;;;10.80;99.90;;;;;;5071375;28;20446;-66
2021/05/26 09:42:28;;;;;;;4.07;1.87;;;10.70;99.90;;;;;;5062014;28;20504;-65
2021/05/26 09:45:04;;;;;;;5.17;2.33;;;10.80;99.90;;;;;;5061025;28;20508;-66
2021/05/26 09:47:56;;;;;;;4.60;2.80;;;10.80;99.90;;;;;;5068332;28;20462;-65
2021/05/26 09:50:28;;;;;;;2.67;2.30;;;10.70;99.90;;;;;;5057008;28;20442;-66
2021/05/26 09:53:03;;;;;;;2.70;1.80;;;10.80;99.90;;;;;;5067031;28;20801;-66
2021/05/26 09:55:37;;;;;;;5.80;2.47;;;10.80;99.90;;;;;;5056518;28;20466;-66
2021/05/26 09:58:03;;;;;;;2.40;1.90;;;10.90;99.90;;;;;;5064148;28;20483;-66
2021/05/26 10:00:32;;;;;;;1.40;1.30;;;11.00;99.90;;;;;;5065862;28;20438;-67
2021/05/26 10:02:58;;;;;;;3.20;1.80;;;11.10;99.90;;;;;;5055359;28;20510;-66
2021/05/26 10:05:25;;;;;;;4.87;2.10;;;11.10;99.90;;;;;;5061962;28;20994;-65
2021/05/26 10:07:51;;;;;;;2.70;1.60;;;11.20;99.90;;;;;;5058929;28;20438;-65
2021/05/26 10:10:18;;;;;;;2.30;1.20;;;11.20;99.90;;;;;;5068061;28;20786;-66
2021/05/26 10:12:45;;;;;;;2.57;1.93;;;11.40;99.90;;;;;;5058028;28;20174;-66
2021/05/26 10:15:12;;;;;;;2.90;2.30;;;11.60;99.90;;;;;;5069757;28;20510;-66
2021/05/26 10:17:41;;;;;;;1.93;1.30;;;11.70;99.90;;;;;;5054283;28;20497;-66
2021/05/26 10:20:10;;;;;;;3.20;2.27;;;11.80;99.90;;;;;;5066595;28;20469;-67
2021/05/26 10:22:38;;;;;;;1.47;1.37;;;11.80;99.90;;;;;;5068628;28;20438;-67
2021/05/26 10:25:06;;;;;;;1.57;1.30;;;11.80;99.90;;;;;;5057788;28;20968;-66
2021/05/26 10:27:36;;;;;;;2.30;1.40;;;11.80;99.90;;;;;;5055088;28;20914;-67
2021/05/26 10:30:06;;;;;;;1.30;1.20;;;11.80;99.90;;;;;;5063452;28;20430;-65
2021/05/26 10:33:02;;;;;;;2.03;1.20;;;11.90;99.90;;;;;;5066011;28;20423;-65
2021/05/26 10:35:53;;;;;;;3.07;1.83;;;12.00;99.90;;;;;;5067997;28;20459;-65
2021/05/26 10:38:18;;;;;;;3.07;1.93;;;12.20;99.90;;;;;;5064018;28;20462;-64
2021/05/26 10:40:53;;;;;;;2.87;1.83;;;12.50;99.90;;;;;;5064028;28;20794;-65
2021/05/26 10:43:19;;;;;;;1.80;1.20;;;12.60;99.90;;;;;;5064319;28;20180;-65
2021/05/26 10:45:47;;;;;;;2.07;1.50;;;12.50;99.90;;;;;;5057186;28;20498;-65
2021/05/26 10:48:12;;;;;;;3.93;1.67;;;12.40;99.90;;;;;;5066927;28;20451;-67
2021/05/26 10:50:44;;;;;;;2.37;2.17;;;12.20;99.90;;;;;;5061382;28;20963;-66
2021/05/26 10:53:10;;;;;;;2.67;2.43;;;12.10;99.90;;;;;;5054867;28;20169;-66
2021/05/26 10:55:39;;;;;;;2.77;2.47;;;12.20;99.90;;;;;;5053752;28;20968;-65
2021/05/26 10:58:25;;;;;;;3.73;2.37;;;12.30;99.90;;;;;;5053119;28;20842;-68
2021/05/26 11:01:00;;;;;;;2.40;1.50;;;12.50;99.90;;;;;;5054086;28;20442;-66
2021/05/26 11:03:29;;;;;;;2.37;1.30;;;12.60;99.90;;;;;;5054825;28;20446;-65
2021/05/26 11:05:54;;;;;;;2.63;1.50;;;12.80;99.90;;;;;;5054749;28;20506;-66
2021/05/26 11:08:35;;;;;;;1.40;1.30;;;12.50;99.90;;;;;;5058651;28;20483;-65
2021/05/26 11:11:27;;;;;;;2.10;1.63;;;12.40;99.90;;;;;;5065447;28;20191;-66
2021/05/26 11:14:15;;;;;;;2.63;2.43;;;12.70;99.90;;;;;;5057201;28;20510;-66
2021/05/26 11:16:40;;;;;;;2.33;1.20;;;13.00;99.90;;;;;;5061972;28;20424;-66
2021/05/26 11:19:12;;;;;;;2.40;1.20;;;13.10;99.90;;;;;;5057913;28;20448;-65
2021/05/26 11:21:39;;;;;;;1.60;1.40;;;13.20;99.90;;;;;;5057064;28;20558;-65
2021/05/26 11:24:05;;;;;;;3.23;1.63;;;13.40;99.90;;;;;;5065510;28;20607;-66
2021/05/26 11:26:31;;;;;;;2.93;1.57;;;13.50;99.90;;;;;;5052179;28;20470;-65
2021/05/26 11:28:57;;;;;;;3.10;1.50;;;13.50;99.90;;;;;;5056020;28;20454;-66
2021/05/26 11:31:23;;;;;;;2.90;1.20;;;13.40;99.90;;;;;;5064378;28;20944;-66
2021/05/26 11:33:56;;;;;;;1.60;1.50;;;13.50;99.90;;;;;;5066740;28;20183;-66
2021/05/26 11:36:40;;;;;;;1.87;1.30;;;13.50;99.90;;;;;;5055081;28;20707;-66
2021/05/26 11:39:25;;;;;;;2.67;1.13;;;13.40;99.90;;;;;;5057992;28;20537;-67
2021/05/26 11:41:50;;;;;;;1.53;1.43;;;13.40;99.90;;;;;;5053340;28;20443;-66
2021/05/26 11:44:16;;;;;;;2.70;1.20;;;13.40;99.90;;;;;;5058859;28;20447;-66
2021/05/26 11:46:45;;;;;;;1.37;1.27;;;13.30;99.90;;;;;;5065242;28;21687;-65
2021/05/26 11:49:13;;;;;;;3.33;1.40;;;13.60;99.90;;;;;;5060112;28;20331;-66
2021/05/26 11:51:40;;;;;;;1.20;1.10;;;13.80;99.90;;;;;;5061089;28;20518;-65
2021/05/26 11:54:06;;;;;;;3.10;1.17;;;13.70;99.90;;;;;;5061607;28;20956;-65
2021/05/26 11:56:35;;;;;;;2.47;1.20;;;13.70;99.90;;;;;;5063959;28;20488;-66
2021/05/26 11:59:00;;;;;;;2.00;1.33;;;13.70;99.90;;;;;;5053349;28;20471;-67
2021/05/26 12:01:33;;;;;;;1.83;1.57;;;13.80;99.90;;;;;;5059442;28;20451;-66
2021/05/26 12:04:01;;;;;;;2.00;1.80;;;14.00;99.90;;;;;;5066560;28;20319;-66
2021/05/26 12:06:26;;;;;;;2.60;1.93;;;14.40;99.90;;;;;;5053723;28;20456;-66
2021/05/26 12:08:53;;;;;;;2.40;1.50;;;14.70;99.90;;;;;;5054736;28;20533;-66
2021/05/26 12:11:22;;;;;;;2.10;1.13;;;14.80;99.90;;;;;;5055448;28;20540;-66
2021/05/26 12:13:49;;;;;;;1.53;1.43;;;14.80;99.90;;;;;;5052122;28;20937;-66
2021/05/26 12:16:20;;;;;;;2.03;1.87;;;14.80;99.90;;;;;;5064707;28;20538;-66
2021/05/26 12:18:58;;;;;;;2.43;2.03;;;14.60;99.90;;;;;;5062890;28;20470;-66
2021/05/26 12:21:28;;;;;;;2.93;1.40;;;15.00;99.90;;;;;;5056655;28;20443;-66
2021/05/26 12:24:14;;;;;;;2.40;1.50;;;15.10;99.90;;;;;;5064323;28;20435;-66
2021/05/26 12:26:46;;;;;;;11.53;1.67;;;15.10;99.90;;;;;;5058849;28;20469;-66
2021/05/26 12:29:12;;;;;;;2.70;1.43;;;15.40;99.90;;;;;;5066472;28;20461;-66
2021/05/26 12:31:39;;;;;;;3.43;1.50;;;16.10;99.90;;;;;;5055636;28;20514;-66
2021/05/26 12:34:19;;;;;;;1.40;1.30;;;16.80;99.90;;;;;;5056243;28;20177;-66
2021/05/26 12:36:53;;;;;;;1.60;1.40;;;16.20;99.90;;;;;;5055644;28;20435;-66
2021/05/26 12:39:19;;;;;;;1.50;1.40;;;16.30;99.90;;;;;;5053361;28;20485;-66
2021/05/26 12:41:49;;;;;;;3.77;1.97;;;16.50;99.90;;;;;;5056864;28;20466;-66
2021/05/26 12:44:15;;;;;;;1.73;1.63;;;16.50;99.90;;;;;;5051794;28;20454;-66
2021/05/26 12:46:51;;;;;;;1.57;1.47;;;16.60;99.90;;;;;;5054622;28;20463;-66
2021/05/26 12:49:29;;;;;;;2.30;1.57;;;16.30;99.90;;;;;;5052009;28;20255;-66